Time;durP1;ratioP1;P1;durP2;ratioP2;P2;SDS_P1;SDS_P2;PMS_P1;PMS_P2;Temp;Humidity;BMP_temperature;BMP_pressure;BME280_temperature;BME280_humidity;BME280_pressure;Samples;Min_cycle;Max_cycle;Signal;HPM_P1;HPM_P2
2023/03/16 00:02:02;;;;;;;18.30;14.80;;;2.70;99.90;;;;;;5089655;28;20952;-69
2023/03/16 00:04:30;;;;;;;15.07;13.83;;;2.80;99.90;;;;;;5088870;28;20470;-69
2023/03/16 00:06:57;;;;;;;15.50;14.23;;;2.80;99.90;;;;;;5096636;28;21020;-69
2023/03/16 00:09:29;;;;;;;14.80;13.60;;;2.80;99.90;;;;;;5091544;28;20461;-69
2023/03/16 00:11:58;;;;;;;29.97;15.23;;;2.80;99.90;;;;;;5093033;28;20462;-69
2023/03/16 00:14:25;;;;;;;16.20;14.50;;;2.80;99.90;;;;;;5087873;28;20462;-69
2023/03/16 00:16:52;;;;;;;17.63;14.30;;;2.80;99.90;;;;;;5091425;28;20483;-70
2023/03/16 00:19:21;;;;;;;19.73;13.77;;;2.90;99.90;;;;;;5086161;28;20519;-70
2023/03/16 00:21:48;;;;;;;14.53;13.27;;;2.90;99.90;;;;;;5096884;28;21032;-69
2023/03/16 00:24:17;;;;;;;14.70;13.30;;;2.90;99.90;;;;;;5095645;28;20477;-69
2023/03/16 00:26:44;;;;;;;17.53;14.40;;;2.90;99.90;;;;;;5091077;28;20465;-69
2023/03/16 00:29:14;;;;;;;24.77;13.60;;;3.00;99.90;;;;;;5085316;28;20454;-70
2023/03/16 00:31:42;;;;;;;15.90;13.93;;;3.00;99.90;;;;;;5085317;28;20802;-69
2023/03/16 00:34:09;;;;;;;14.00;13.10;;;3.00;99.90;;;;;;5086538;28;20472;-69
2023/03/16 00:36:37;;;;;;;20.97;14.07;;;3.00;99.90;;;;;;5087904;28;20750;-70
2023/03/16 00:39:04;;;;;;;20.90;14.20;;;3.00;99.90;;;;;;5081226;28;20531;-69
2023/03/16 00:41:31;;;;;;;14.87;13.87;;;3.00;99.90;;;;;;5094554;28;20493;-69
2023/03/16 00:43:58;;;;;;;13.93;13.03;;;3.00;99.90;;;;;;5092398;28;20490;-69
2023/03/16 00:46:26;;;;;;;14.53;13.53;;;3.00;99.90;;;;;;5095963;28;20465;-70
2023/03/16 00:48:53;;;;;;;15.27;13.70;;;3.10;99.90;;;;;;5096934;28;20978;-70
2023/03/16 00:51:21;;;;;;;14.40;13.27;;;3.10;99.90;;;;;;5095320;28;20504;-69
2023/03/16 00:53:49;;;;;;;15.53;13.63;;;3.10;99.90;;;;;;5090726;28;20462;-70
2023/03/16 00:56:16;;;;;;;16.30;14.60;;;3.10;99.90;;;;;;5086450;28;20492;-69
2023/03/16 00:58:44;;;;;;;14.60;13.50;;;3.10;99.90;;;;;;5089396;28;20453;-69
2023/03/16 01:01:14;;;;;;;15.70;14.40;;;3.10;99.90;;;;;;5088230;28;20826;-70
2023/03/16 01:03:42;;;;;;;15.53;14.13;;;3.10;99.90;;;;;;5086922;28;20537;-70
2023/03/16 01:06:12;;;;;;;15.17;13.87;;;3.20;99.90;;;;;;5082593;28;20468;-69
2023/03/16 01:08:40;;;;;;;14.60;13.43;;;3.10;99.90;;;;;;5090749;28;20733;-69
2023/03/16 01:11:09;;;;;;;14.33;12.97;;;3.20;99.90;;;;;;5089305;28;20575;-69
2023/03/16 01:13:36;;;;;;;16.03;13.90;;;3.20;99.90;;;;;;5090993;28;20552;-70
2023/03/16 01:16:03;;;;;;;15.40;14.30;;;3.20;99.90;;;;;;5098017;28;20457;-69
2023/03/16 01:18:33;;;;;;;16.07;14.70;;;3.20;99.90;;;;;;5082555;28;20548;-70
2023/03/16 01:21:01;;;;;;;15.73;13.60;;;3.20;99.90;;;;;;5091251;28;20461;-69
2023/03/16 01:23:30;;;;;;;13.53;12.83;;;3.20;99.90;;;;;;5090635;28;20837;-69
2023/03/16 01:25:57;;;;;;;14.17;13.33;;;3.20;99.90;;;;;;5084703;28;20462;-69
2023/03/16 01:28:27;;;;;;;15.07;14.00;;;3.10;99.90;;;;;;5089599;28;20454;-69
2023/03/16 01:31:02;;;;;;;15.10;13.97;;;3.10;99.90;;;;;;5091285;28;20968;-70
2023/03/16 01:33:29;;;;;;;13.73;12.93;;;3.20;99.90;;;;;;5096423;28;21257;-69
2023/03/16 01:35:58;;;;;;;13.83;12.93;;;3.20;99.90;;;;;;5084212;28;20466;-69
2023/03/16 01:38:28;;;;;;;14.60;13.20;;;3.20;99.90;;;;;;5090168;28;20510;-69
2023/03/16 01:40:57;;;;;;;14.03;12.93;;;3.10;99.90;;;;;;5089885;28;20997;-71
2023/03/16 01:43:26;;;;;;;14.50;13.40;;;3.20;99.90;;;;;;5093477;28;20485;-69
2023/03/16 01:46:21;;;;;;;15.30;13.07;;;3.10;99.90;;;;;;5087111;28;21045;-69
2023/03/16 01:49:08;;;;;;;13.97;12.97;;;3.10;99.90;;;;;;5090688;28;20461;-69
2023/03/16 01:51:40;;;;;;;13.80;12.90;;;3.20;99.90;;;;;;5089383;28;20488;-69
2023/03/16 01:54:26;;;;;;;16.60;13.13;;;3.20;99.90;;;;;;5093308;28;20527;-69
2023/03/16 01:57:00;;;;;;;13.17;12.20;;;3.10;99.90;;;;;;5083953;28;20473;-69
2023/03/16 01:59:32;;;;;;;13.90;13.00;;;3.10;99.90;;;;;;5091414;28;20457;-69
2023/03/16 02:01:59;;;;;;;14.67;13.57;;;3.10;99.90;;;;;;5097042;28;20456;-70
2023/03/16 02:04:48;;;;;;;13.30;12.40;;;3.10;99.90;;;;;;5099946;28;20469;-69
2023/03/16 02:07:17;;;;;;;15.57;13.33;;;3.10;99.90;;;;;;5095439;28;20461;-69
2023/03/16 02:09:50;;;;;;;12.40;11.70;;;3.10;99.90;;;;;;5093123;28;20545;-69
2023/03/16 02:12:18;;;;;;;13.30;12.20;;;3.10;99.90;;;;;;5086587;28;20488;-69
2023/03/16 02:14:47;;;;;;;13.60;12.40;;;3.20;99.90;;;;;;5093830;28;20818;-69
2023/03/16 02:17:16;;;;;;;12.90;12.10;;;3.20;99.90;;;;;;5095704;28;20553;-70
2023/03/16 02:19:53;;;;;;;13.60;12.67;;;3.20;99.90;;;;;;5102097;28;20887;-69
2023/03/16 02:22:23;;;;;;;12.47;11.80;;;3.20;99.90;;;;;;5094350;28;20461;-70
2023/03/16 02:24:53;;;;;;;14.00;12.60;;;3.20;99.90;;;;;;5093000;28;20481;-69
2023/03/16 02:27:27;;;;;;;14.00;13.07;;;3.20;99.90;;;;;;5091868;28;20457;-69
2023/03/16 02:30:00;;;;;;;13.33;12.23;;;3.20;99.90;;;;;;5091076;28;20926;-70
2023/03/16 02:32:30;;;;;;;12.97;11.70;;;3.20;99.90;;;;;;5089851;28;20496;-70
2023/03/16 02:34:59;;;;;;;13.50;12.40;;;3.20;99.90;;;;;;5094114;28;21160;-69
2023/03/16 02:37:26;;;;;;;13.73;12.40;;;3.20;99.90;;;;;;5092005;28;20979;-69
2023/03/16 02:39:53;;;;;;;13.33;12.50;;;3.20;99.90;;;;;;5099321;28;20488;-69
2023/03/16 02:42:22;;;;;;;13.47;12.37;;;3.20;99.90;;;;;;5087573;28;21066;-69
2023/03/16 02:44:56;;;;;;;14.27;13.13;;;3.30;99.90;;;;;;5092323;28;21039;-70
2023/03/16 02:47:30;;;;;;;13.87;12.83;;;3.30;99.90;;;;;;5089989;28;20462;-69
2023/03/16 02:49:57;;;;;;;13.47;12.43;;;3.30;99.90;;;;;;5096971;28;20869;-70
2023/03/16 02:52:24;;;;;;;13.57;12.50;;;3.30;99.90;;;;;;5090154;28;20579;-70
2023/03/16 02:54:51;;;;;;;14.03;12.70;;;3.40;99.90;;;;;;5089257;28;20507;-69
2023/03/16 02:57:17;;;;;;;15.03;13.93;;;3.40;99.90;;;;;;5096251;28;20468;-70
2023/03/16 02:59:44;;;;;;;13.27;12.27;;;3.40;99.90;;;;;;5099401;28;20860;-69
2023/03/16 03:02:11;;;;;;;13.07;12.27;;;3.40;99.90;;;;;;5089228;28;20515;-69
2023/03/16 03:04:40;;;;;;;13.90;13.10;;;3.40;99.90;;;;;;5089041;28;20450;-69
2023/03/16 03:07:08;;;;;;;13.47;12.57;;;3.40;99.90;;;;;;5093536;28;20541;-69
2023/03/16 03:09:34;;;;;;;13.70;12.70;;;3.40;99.90;;;;;;5094076;28;20510;-69
2023/03/16 03:12:03;;;;;;;13.90;12.87;;;3.40;99.90;;;;;;5091311;28;20485;-69
2023/03/16 03:14:30;;;;;;;13.50;12.63;;;3.40;99.90;;;;;;5095540;28;20703;-70
2023/03/16 03:16:56;;;;;;;14.13;13.23;;;3.40;99.90;;;;;;5088174;28;20959;-69
2023/03/16 03:19:23;;;;;;;13.17;12.17;;;3.40;99.90;;;;;;5096585;28;20801;-69
2023/03/16 03:21:55;;;;;;;15.60;12.93;;;3.50;99.90;;;;;;5090345;28;20462;-70
2023/03/16 03:24:23;;;;;;;12.70;11.63;;;3.50;99.90;;;;;;5093157;28;20477;-69
2023/03/16 03:26:50;;;;;;;13.13;12.33;;;3.50;99.90;;;;;;5097144;28;20466;-70
2023/03/16 03:29:17;;;;;;;14.23;13.00;;;3.50;99.90;;;;;;5098295;28;20461;-69
2023/03/16 03:31:44;;;;;;;14.60;13.20;;;3.50;99.90;;;;;;5093559;28;20480;-69
2023/03/16 03:34:11;;;;;;;12.87;11.97;;;3.50;99.90;;;;;;5086067;28;20462;-69
2023/03/16 03:36:38;;;;;;;14.27;12.97;;;3.40;99.90;;;;;;5093012;28;20458;-70
2023/03/16 03:39:07;;;;;;;13.97;12.90;;;3.40;99.90;;;;;;5095869;28;20469;-69
2023/03/16 03:41:34;;;;;;;13.90;13.00;;;3.40;99.90;;;;;;5100672;28;20470;-70
2023/03/16 03:44:01;;;;;;;13.50;12.70;;;3.50;99.90;;;;;;5093522;28;20489;-70
2023/03/16 03:46:28;;;;;;;15.67;14.30;;;3.50;99.90;;;;;;5092720;28;20457;-69
2023/03/16 03:49:00;;;;;;;13.67;12.37;;;3.50;99.90;;;;;;5094287;28;20462;-69
2023/03/16 03:51:26;;;;;;;15.87;14.27;;;3.50;99.90;;;;;;5088334;28;20531;-69
2023/03/16 03:53:53;;;;;;;14.07;12.87;;;3.50;99.90;;;;;;5096991;28;20472;-70
2023/03/16 03:56:22;;;;;;;14.47;13.20;;;3.50;99.90;;;;;;5088853;28;20477;-69
2023/03/16 03:58:49;;;;;;;13.20;12.50;;;3.40;99.90;;;;;;5094386;28;20501;-69
2023/03/16 04:01:16;;;;;;;14.20;13.00;;;3.50;99.90;;;;;;5093020;28;20465;-69
2023/03/16 04:03:43;;;;;;;14.33;13.27;;;3.50;99.90;;;;;;5090374;28;20833;-69
2023/03/16 04:06:10;;;;;;;14.83;13.40;;;3.50;99.90;;;;;;5089202;28;20881;-69
2023/03/16 04:08:37;;;;;;;21.23;13.70;;;3.50;99.90;;;;;;5098561;28;20994;-70
2023/03/16 04:11:04;;;;;;;15.07;13.97;;;3.50;99.90;;;;;;5089411;28;20488;-69
2023/03/16 04:13:32;;;;;;;14.73;13.50;;;3.50;99.90;;;;;;5089343;28;20473;-69
2023/03/16 04:16:01;;;;;;;14.83;13.53;;;3.50;99.90;;;;;;5089565;28;20515;-70
2023/03/16 04:18:28;;;;;;;15.00;13.87;;;3.50;99.90;;;;;;5091581;28;20477;-69
2023/03/16 04:20:55;;;;;;;15.03;13.50;;;3.50;99.90;;;;;;5091097;28;20568;-70
2023/03/16 04:23:23;;;;;;;15.03;13.73;;;3.50;99.90;;;;;;5092209;28;20535;-70
2023/03/16 04:25:50;;;;;;;14.60;13.67;;;3.50;99.90;;;;;;5093444;28;20465;-69
2023/03/16 04:28:17;;;;;;;20.23;13.40;;;3.50;99.90;;;;;;5086344;28;20484;-69
2023/03/16 04:30:45;;;;;;;14.50;13.50;;;3.50;99.90;;;;;;5085306;28;20458;-70
2023/03/16 04:33:13;;;;;;;15.00;13.80;;;3.60;99.90;;;;;;5091082;28;20458;-69
2023/03/16 04:35:41;;;;;;;14.63;13.67;;;3.70;99.90;;;;;;5088987;28;20552;-69
2023/03/16 04:38:09;;;;;;;14.37;12.93;;;3.70;99.90;;;;;;5089952;28;20808;-69
2023/03/16 04:40:36;;;;;;;14.93;13.70;;;3.70;99.90;;;;;;5090411;28;20890;-69
2023/03/16 04:43:02;;;;;;;15.37;14.37;;;3.80;99.90;;;;;;5096818;28;20533;-69
2023/03/16 04:45:29;;;;;;;15.00;14.10;;;3.80;99.90;;;;;;5090936;28;20589;-69
2023/03/16 04:47:58;;;;;;;14.93;14.07;;;3.80;99.90;;;;;;5085670;28;20461;-69
2023/03/16 04:50:25;;;;;;;14.10;13.37;;;3.80;99.90;;;;;;5087739;28;20474;-69
2023/03/16 04:52:52;;;;;;;15.73;14.63;;;3.80;99.90;;;;;;5093826;28;20552;-69
2023/03/16 04:55:19;;;;;;;13.73;12.93;;;3.90;99.90;;;;;;5093864;28;20459;-69
2023/03/16 04:57:46;;;;;;;15.80;14.60;;;3.80;99.90;;;;;;5088270;28;20543;-68
2023/03/16 05:00:18;;;;;;;16.07;14.77;;;3.80;99.90;;;;;;5089880;28;20458;-68
2023/03/16 05:02:45;;;;;;;15.20;14.10;;;3.80;99.90;;;;;;5089278;28;20474;-68
2023/03/16 05:05:13;;;;;;;15.30;14.30;;;3.70;99.90;;;;;;5092793;28;20498;-68
2023/03/16 05:07:41;;;;;;;17.10;15.40;;;3.80;99.90;;;;;;5092682;28;20981;-68
2023/03/16 05:10:09;;;;;;;15.77;14.43;;;3.80;99.90;;;;;;5093781;28;20526;-69
2023/03/16 05:12:35;;;;;;;14.87;13.73;;;3.70;99.90;;;;;;5087680;28;20489;-68
2023/03/16 05:15:02;;;;;;;16.20;15.00;;;3.70;99.90;;;;;;5087820;28;20496;-68
2023/03/16 05:17:30;;;;;;;15.80;14.47;;;3.70;99.90;;;;;;5088111;28;20461;-68
2023/03/16 05:19:56;;;;;;;22.50;15.17;;;3.70;99.90;;;;;;5095615;28;20470;-68
2023/03/16 05:22:25;;;;;;;16.73;15.43;;;3.80;99.90;;;;;;5098952;28;20449;-68
2023/03/16 05:24:52;;;;;;;15.40;14.30;;;3.80;99.90;;;;;;5096825;28;20572;-68
2023/03/16 05:27:19;;;;;;;28.53;15.43;;;3.80;99.90;;;;;;5089410;28;20904;-68
2023/03/16 05:29:46;;;;;;;18.77;15.13;;;3.80;99.90;;;;;;5093633;28;20449;-68
2023/03/16 05:32:15;;;;;;;16.87;15.17;;;3.80;99.90;;;;;;5094308;28;20488;-69
2023/03/16 05:34:43;;;;;;;16.10;14.70;;;3.80;99.90;;;;;;5100870;28;20481;-68
2023/03/16 05:37:10;;;;;;;20.33;15.27;;;3.80;99.90;;;;;;5092977;28;20465;-68
2023/03/16 05:39:38;;;;;;;15.63;14.13;;;3.80;99.90;;;;;;5094651;28;20468;-68
2023/03/16 05:42:05;;;;;;;17.20;14.90;;;3.80;99.90;;;;;;5093169;28;20486;-68
2023/03/16 05:44:33;;;;;;;18.13;15.50;;;3.80;99.90;;;;;;5094703;28;20458;-69
2023/03/16 05:46:59;;;;;;;15.70;14.30;;;3.80;99.90;;;;;;5092115;28;20488;-69
2023/03/16 05:49:26;;;;;;;16.17;14.77;;;3.80;99.90;;;;;;5103003;28;20469;-68
2023/03/16 05:51:53;;;;;;;16.43;14.83;;;3.80;99.90;;;;;;5091872;28;20492;-68
2023/03/16 05:54:20;;;;;;;17.00;15.30;;;3.80;99.90;;;;;;5090391;28;20952;-69
2023/03/16 05:56:48;;;;;;;17.83;14.53;;;3.80;99.90;;;;;;5088138;28;20453;-68
2023/03/16 05:59:16;;;;;;;29.00;15.10;;;3.80;99.90;;;;;;5093468;28;20484;-69
2023/03/16 06:01:43;;;;;;;18.83;15.13;;;3.80;99.90;;;;;;5090393;28;20749;-68
2023/03/16 06:04:10;;;;;;;16.33;14.57;;;3.80;99.90;;;;;;5093607;28;21019;-68
2023/03/16 06:06:37;;;;;;;17.33;15.60;;;3.90;99.90;;;;;;5088434;28;20977;-68
2023/03/16 06:09:04;;;;;;;20.03;15.03;;;3.90;99.90;;;;;;5090660;28;20468;-70
2023/03/16 06:11:31;;;;;;;19.00;14.23;;;3.80;99.90;;;;;;5093009;28;20457;-68
2023/03/16 06:14:00;;;;;;;17.03;15.63;;;3.90;99.90;;;;;;5096502;28;20462;-68
2023/03/16 06:16:27;;;;;;;16.90;14.40;;;4.00;99.90;;;;;;5096670;28;20549;-68
2023/03/16 06:18:55;;;;;;;16.00;14.73;;;4.00;99.90;;;;;;5095436;28;20458;-68
2023/03/16 06:21:22;;;;;;;16.00;14.50;;;4.00;99.90;;;;;;5098429;28;20468;-68
2023/03/16 06:23:49;;;;;;;16.90;15.23;;;4.00;99.90;;;;;;5095193;28;20530;-68
2023/03/16 06:26:16;;;;;;;26.73;15.53;;;4.00;99.90;;;;;;5098967;28;20462;-68
2023/03/16 06:28:42;;;;;;;16.60;15.20;;;4.00;99.90;;;;;;5090576;28;20473;-69
2023/03/16 06:31:10;;;;;;;16.43;14.70;;;4.10;99.90;;;;;;5093971;28;20470;-68
2023/03/16 06:33:37;;;;;;;16.77;15.07;;;4.10;99.90;;;;;;5090649;28;20494;-68
2023/03/16 06:36:05;;;;;;;16.97;15.33;;;4.10;99.90;;;;;;5089369;28;20458;-68
2023/03/16 06:38:32;;;;;;;17.03;15.43;;;4.10;99.90;;;;;;5092796;28;20692;-68
2023/03/16 06:41:00;;;;;;;16.13;15.00;;;4.20;99.90;;;;;;5097789;28;20512;-68
2023/03/16 06:43:27;;;;;;;15.70;14.67;;;4.20;99.90;;;;;;5093238;28;20486;-68
2023/03/16 06:45:54;;;;;;;16.90;15.60;;;4.20;99.90;;;;;;5096993;28;20488;-69
2023/03/16 06:48:23;;;;;;;16.00;14.70;;;4.20;99.90;;;;;;5097678;28;20866;-68
2023/03/16 06:50:50;;;;;;;16.43;14.80;;;4.20;99.90;;;;;;5095226;28;20465;-68
2023/03/16 06:53:16;;;;;;;15.87;14.77;;;4.30;99.90;;;;;;5086476;28;20507;-68
2023/03/16 06:55:43;;;;;;;16.43;15.10;;;4.50;99.90;;;;;;5087194;28;20466;-68
2023/03/16 06:58:11;;;;;;;16.37;14.77;;;4.40;99.90;;;;;;5087101;28;20461;-69
2023/03/16 07:00:37;;;;;;;17.83;16.37;;;4.50;99.90;;;;;;5099647;28;20990;-68
2023/03/16 07:03:04;;;;;;;16.17;14.57;;;4.60;99.90;;;;;;5091334;28;20465;-68
2023/03/16 07:05:32;;;;;;;23.93;16.20;;;4.60;99.90;;;;;;5091486;28;21123;-69
2023/03/16 07:08:00;;;;;;;21.70;16.73;;;4.70;99.90;;;;;;5092753;28;20475;-68
2023/03/16 07:10:26;;;;;;;22.70;15.93;;;4.80;99.90;;;;;;5093588;28;20983;-68
2023/03/16 07:12:54;;;;;;;25.30;15.70;;;4.90;99.90;;;;;;5090610;28;20490;-69
2023/03/16 07:15:21;;;;;;;20.80;16.73;;;5.00;99.90;;;;;;5091436;28;20735;-68
2023/03/16 07:17:48;;;;;;;18.03;16.13;;;5.10;99.90;;;;;;5089130;28;20488;-68
2023/03/16 07:20:15;;;;;;;19.73;16.47;;;5.10;99.90;;;;;;5092201;28;20796;-68
2023/03/16 07:22:43;;;;;;;21.73;16.27;;;5.20;99.90;;;;;;5094435;28;20458;-68
2023/03/16 07:25:12;;;;;;;20.10;15.90;;;5.30;99.90;;;;;;5090463;28;20485;-69
2023/03/16 07:27:40;;;;;;;24.10;16.80;;;5.30;99.90;;;;;;5091543;28;20561;-68
2023/03/16 07:30:10;;;;;;;18.80;17.20;;;5.40;99.90;;;;;;5094958;28;20475;-68
2023/03/16 07:32:37;;;;;;;17.70;15.93;;;5.50;99.90;;;;;;5092333;28;20491;-68
2023/03/16 07:35:04;;;;;;;17.90;16.50;;;5.40;99.90;;;;;;5085679;28;20965;-69
2023/03/16 07:37:33;;;;;;;18.50;16.97;;;5.50;99.90;;;;;;5085874;28;20460;-68
2023/03/16 07:40:02;;;;;;;19.30;17.10;;;5.70;99.90;;;;;;5093705;28;20510;-68
2023/03/16 07:42:29;;;;;;;21.80;16.87;;;5.80;99.90;;;;;;5095761;28;20997;-68
2023/03/16 07:44:56;;;;;;;17.67;16.37;;;5.70;99.90;;;;;;5089492;28;20470;-68
2023/03/16 07:47:24;;;;;;;18.17;16.90;;;5.70;99.90;;;;;;5086410;28;20854;-68
2023/03/16 07:49:51;;;;;;;18.27;16.77;;;5.70;99.90;;;;;;5087491;28;20496;-69
2023/03/16 07:52:19;;;;;;;18.47;17.07;;;5.90;99.90;;;;;;5094948;28;20842;-68
2023/03/16 07:54:45;;;;;;;18.53;16.80;;;6.00;99.90;;;;;;5092886;28;20551;-69
2023/03/16 07:57:14;;;;;;;18.63;17.23;;;6.00;99.90;;;;;;5094901;28;20811;-68
2023/03/16 07:59:41;;;;;;;19.37;16.77;;;6.00;99.90;;;;;;5090532;28;20469;-68
2023/03/16 08:02:12;;;;;;;18.17;16.80;;;6.00;99.90;;;;;;5086465;28;20556;-68
2023/03/16 08:04:41;;;;;;;18.93;17.03;;;6.00;99.90;;;;;;5088528;28;20493;-68
2023/03/16 08:07:08;;;;;;;17.43;16.13;;;6.10;99.90;;;;;;5092814;28;20512;-69
2023/03/16 08:09:35;;;;;;;18.40;16.83;;;6.20;99.90;;;;;;5091165;28;20616;-69
2023/03/16 08:12:02;;;;;;;17.53;16.33;;;6.20;99.90;;;;;;5092797;28;20580;-69
2023/03/16 08:14:33;;;;;;;18.70;17.10;;;6.20;99.90;;;;;;5091938;28;20453;-68
2023/03/16 08:17:00;;;;;;;17.83;16.40;;;6.30;99.90;;;;;;5085234;28;20465;-68
2023/03/16 08:19:27;;;;;;;18.17;16.93;;;6.20;99.90;;;;;;5087511;28;20551;-71
2023/03/16 08:21:55;;;;;;;17.60;16.20;;;6.30;99.90;;;;;;5087049;28;21081;-69
2023/03/16 08:24:21;;;;;;;16.47;15.27;;;6.20;99.90;;;;;;5091746;28;20534;-69
2023/03/16 08:26:48;;;;;;;17.83;15.53;;;6.30;99.90;;;;;;5075321;28;20857;-69
2023/03/16 08:29:15;;;;;;;17.40;16.00;;;6.20;99.90;;;;;;5081346;28;20574;-68
2023/03/16 08:31:43;;;;;;;17.37;16.17;;;6.20;99.90;;;;;;5080963;28;20830;-68
2023/03/16 08:34:10;;;;;;;18.40;16.70;;;6.30;99.90;;;;;;5085731;28;20971;-68
2023/03/16 08:36:38;;;;;;;17.37;16.17;;;6.40;99.90;;;;;;5084084;28;20460;-69
2023/03/16 08:39:05;;;;;;;18.83;16.70;;;6.50;99.90;;;;;;5084734;28;20461;-69
2023/03/16 08:41:33;;;;;;;16.37;15.27;;;6.50;99.90;;;;;;5084735;28;20985;-69
2023/03/16 08:44:00;;;;;;;17.03;15.67;;;6.60;99.90;;;;;;5085004;28;20795;-69
2023/03/16 08:46:27;;;;;;;17.17;15.97;;;6.70;99.90;;;;;;5084891;28;21907;-69
2023/03/16 08:48:55;;;;;;;16.80;15.40;;;6.80;99.90;;;;;;5095164;28;20465;-69
2023/03/16 08:51:23;;;;;;;20.33;16.70;;;6.90;99.90;;;;;;5091253;28;20466;-67
2023/03/16 08:53:50;;;;;;;19.37;17.43;;;7.00;99.90;;;;;;5081694;28;20500;-69
2023/03/16 08:56:17;;;;;;;18.50;16.63;;;7.10;99.90;;;;;;5087828;28;20648;-68
2023/03/16 08:58:44;;;;;;;18.03;16.37;;;7.00;99.90;;;;;;5087743;28;20962;-69
2023/03/16 09:01:13;;;;;;;17.60;16.20;;;7.10;99.90;;;;;;5095239;28;20458;-69
2023/03/16 09:03:40;;;;;;;17.60;16.00;;;7.10;99.90;;;;;;5091521;28;20492;-68
2023/03/16 09:06:12;;;;;;;17.30;15.63;;;7.10;99.90;;;;;;5091374;28;20460;-68
2023/03/16 09:08:39;;;;;;;17.90;16.60;;;7.10;99.90;;;;;;5088568;28;20462;-69
2023/03/16 09:11:08;;;;;;;18.60;17.00;;;7.20;99.90;;;;;;5084178;28;20473;-68
2023/03/16 09:13:37;;;;;;;18.57;17.37;;;7.30;99.90;;;;;;5093349;28;20976;-68
2023/03/16 09:16:04;;;;;;;18.30;17.10;;;7.50;99.90;;;;;;5089957;28;20560;-68
2023/03/16 09:18:31;;;;;;;21.47;19.77;;;7.60;99.90;;;;;;5092242;28;20489;-68
2023/03/16 09:20:59;;;;;;;18.90;17.43;;;7.70;99.90;;;;;;5084661;28;20454;-69
2023/03/16 09:23:28;;;;;;;19.63;17.80;;;7.90;99.90;;;;;;5088936;28;20597;-69
2023/03/16 09:25:58;;;;;;;19.20;17.90;;;8.00;99.90;;;;;;5088686;28;20470;-68
2023/03/16 09:28:26;;;;;;;19.57;17.97;;;8.10;99.90;;;;;;5085774;28;20651;-68
2023/03/16 09:30:53;;;;;;;20.80;18.70;;;8.30;99.90;;;;;;5091944;28;20457;-69
2023/03/16 09:33:21;;;;;;;19.67;18.37;;;8.30;99.90;;;;;;5086925;28;20478;-69
2023/03/16 09:35:49;;;;;;;20.53;18.53;;;8.30;99.90;;;;;;5089918;28;20575;-69
2023/03/16 09:38:17;;;;;;;20.03;18.63;;;8.50;99.90;;;;;;5086826;28;20466;-68
2023/03/16 09:40:47;;;;;;;20.90;19.33;;;8.60;99.90;;;;;;5090527;28;20548;-69
2023/03/16 09:43:25;;;;;;;20.30;18.80;;;8.40;99.90;;;;;;5089105;28;20901;-68
2023/03/16 09:46:00;;;;;;;19.77;18.37;;;8.60;99.90;;;;;;5091971;28;20457;-69
2023/03/16 09:48:30;;;;;;;19.33;18.03;;;8.60;99.90;;;;;;5092579;28;20498;-69
2023/03/16 09:51:00;;;;;;;21.43;18.77;;;8.60;99.90;;;;;;5090000;28;20531;-68
2023/03/16 09:53:29;;;;;;;19.57;18.10;;;8.80;99.90;;;;;;5086205;28;20489;-69
2023/03/16 09:56:02;;;;;;;19.80;18.50;;;8.80;99.90;;;;;;5087907;28;20457;-69
2023/03/16 09:58:29;;;;;;;18.80;17.60;;;8.80;99.90;;;;;;5093587;28;20450;-69
2023/03/16 10:01:08;;;;;;;20.33;19.00;;;9.20;99.90;;;;;;5089764;28;20545;-69
2023/03/16 10:03:49;;;;;;;20.63;18.87;;;9.40;99.90;;;;;;5085467;28;20461;-69
2023/03/16 10:06:16;;;;;;;20.57;18.90;;;9.80;99.90;;;;;;5086208;28;20469;-69
2023/03/16 10:08:45;;;;;;;20.23;18.90;;;10.10;99.90;;;;;;5085958;28;20465;-69
2023/03/16 10:11:24;;;;;;;20.30;18.77;;;10.10;99.90;;;;;;5098188;28;20529;-70
2023/03/16 10:13:55;;;;;;;20.10;18.87;;;10.20;99.90;;;;;;5090861;28;20493;-70
2023/03/16 10:16:27;;;;;;;20.43;19.10;;;10.20;99.90;;;;;;5087074;28;20462;-70
2023/03/16 10:19:01;;;;;;;21.00;19.30;;;10.20;99.90;;;;;;5091332;28;20458;-70
2023/03/16 10:21:31;;;;;;;19.53;17.97;;;10.20;99.90;;;;;;5084706;28;20846;-70
2023/03/16 10:24:03;;;;;;;20.87;19.47;;;10.20;99.90;;;;;;5093818;28;20478;-70
2023/03/16 10:26:40;;;;;;;19.43;18.33;;;10.30;99.90;;;;;;5086574;28;20519;-71
2023/03/16 10:29:13;;;;;;;20.30;18.60;;;10.30;99.90;;;;;;5095481;28;20556;-70
2023/03/16 10:31:41;;;;;;;20.77;18.90;;;10.30;99.90;;;;;;5085945;28;20968;-70
2023/03/16 10:34:10;;;;;;;20.17;18.77;;;10.40;99.90;;;;;;5090838;28;20488;-70
2023/03/16 10:36:40;;;;;;;19.80;18.40;;;10.40;99.90;;;;;;5085031;28;20466;-71
2023/03/16 10:39:09;;;;;;;20.20;18.77;;;10.50;99.90;;;;;;5088794;28;20480;-69
2023/03/16 10:41:39;;;;;;;19.33;18.03;;;10.30;99.90;;;;;;5092901;28;20458;-70
2023/03/16 10:44:11;;;;;;;23.90;18.93;;;10.40;99.90;;;;;;5087894;28;20825;-70
2023/03/16 10:46:40;;;;;;;20.23;19.00;;;11.00;99.90;;;;;;5093424;28;20473;-70
2023/03/16 10:49:22;;;;;;;20.60;19.33;;;11.20;99.90;;;;;;5096465;28;20476;-71
2023/03/16 10:51:49;;;;;;;20.63;19.23;;;11.90;99.90;;;;;;5088980;28;20642;-69
2023/03/16 10:54:18;;;;;;;19.73;18.43;;;12.20;99.90;;;;;;5088428;28;20584;-69
2023/03/16 10:56:49;;;;;;;21.20;19.50;;;12.20;99.90;;;;;;5087117;28;20457;-72
2023/03/16 10:59:27;;;;;;;22.73;19.30;;;12.40;99.90;;;;;;5088544;28;20465;-70
2023/03/16 11:01:54;;;;;;;21.93;19.47;;;12.50;99.90;;;;;;5089639;28;20541;-70
2023/03/16 11:04:21;;;;;;;21.20;19.60;;;12.60;99.90;;;;;;5090179;28;20469;-69
2023/03/16 11:06:52;;;;;;;20.20;18.90;;;12.70;99.90;;;;;;5094377;28;20487;-71
2023/03/16 11:09:23;;;;;;;21.37;19.70;;;12.40;99.90;;;;;;5089059;28;20985;-69
2023/03/16 11:11:52;;;;;;;20.57;18.97;;;12.70;99.90;;;;;;5085466;28;20470;-72
2023/03/16 11:14:23;;;;;;;24.60;18.63;;;12.80;99.90;;;;;;5092141;28;20891;-69
2023/03/16 11:16:57;;;;;;;20.63;18.73;;;13.20;99.90;;;;;;5085566;28;21096;-72
2023/03/16 11:19:29;;;;;;;21.27;19.40;;;13.40;99.90;;;;;;5091594;28;20568;-70
2023/03/16 11:22:00;;;;;;;19.57;18.10;;;13.80;99.90;;;;;;5091459;28;20462;-69
2023/03/16 11:24:34;;;;;;;21.20;18.57;;;14.20;99.90;;;;;;5085675;28;20482;-70
2023/03/16 11:27:07;;;;;;;19.57;17.93;;;14.70;99.90;;;;;;5095866;28;20461;-70
2023/03/16 11:29:46;;;;;;;21.40;18.00;;;14.90;99.90;;;;;;5087532;28;20567;-69
2023/03/16 11:32:19;;;;;;;19.57;17.73;;;15.10;99.90;;;;;;5089922;28;20838;-68
2023/03/16 11:34:47;;;;;;;19.10;17.90;;;14.90;99.90;;;;;;5082484;28;20555;-70
2023/03/16 11:37:24;;;;;;;19.60;18.30;;;15.00;99.90;;;;;;5088896;28;20462;-70
2023/03/16 11:40:08;;;;;;;20.60;18.60;;;14.90;99.90;;;;;;5091577;28;20450;-69
2023/03/16 11:42:41;;;;;;;22.23;18.67;;;14.90;99.90;;;;;;5092922;28;20489;-69
2023/03/16 11:45:20;;;;;;;18.43;17.03;;;15.40;99.90;;;;;;5084960;28;21129;-70
2023/03/16 11:48:06;;;;;;;20.87;18.87;;;15.60;99.90;;;;;;5086765;28;20453;-70
2023/03/16 11:50:43;;;;;;;19.00;17.63;;;16.00;99.90;;;;;;5091354;28;20465;-70
2023/03/16 11:53:19;;;;;;;20.13;18.40;;;16.50;98.40;;;;;;5072677;28;20454;-71
2023/03/16 11:55:53;;;;;;;18.60;17.50;;;16.20;97.80;;;;;;5077252;28;20468;-70
2023/03/16 11:58:34;;;;;;;22.07;16.90;;;15.90;96.60;;;;;;5086790;28;20473;-71
2023/03/16 12:01:08;;;;;;;20.27;18.00;;;15.60;96.70;;;;;;5084168;28;20465;-70
2023/03/16 12:04:08;;;;;;;20.80;18.70;;;15.30;96.60;;;;;;5085570;28;20590;-72
2023/03/16 12:06:51;;;;;;;21.03;19.17;;;15.00;97.90;;;;;;5048091;28;20462;-71
2023/03/16 12:09:54;;;;;;;20.60;19.07;;;15.00;97.60;;;;;;5084578;28;20534;-71
2023/03/16 12:12:30;;;;;;;34.70;18.50;;;15.10;97.30;;;;;;5049214;28;20466;-71
2023/03/16 12:15:20;;;;;;;22.57;20.10;;;15.10;96.60;;;;;;5079521;28;20528;-71
2023/03/16 12:17:52;;;;;;;22.10;18.80;;;14.70;97.30;;;;;;5087896;28;20450;-73
2023/03/16 12:20:24;;;;;;;22.03;19.90;;;15.10;98.00;;;;;;5085229;28;20497;-71
2023/03/16 12:22:58;;;;;;;21.57;18.73;;;15.10;97.60;;;;;;5081146;28;20472;-73
2023/03/16 12:25:32;;;;;;;20.53;18.77;;;15.20;97.40;;;;;;5085197;28;20821;-72
2023/03/16 12:28:04;;;;;;;20.30;18.40;;;15.30;96.70;;;;;;5084129;28;20465;-71
2023/03/16 12:30:42;;;;;;;25.47;17.60;;;15.40;96.90;;;;;;5088973;28;20458;-71
2023/03/16 12:33:19;;;;;;;19.60;17.87;;;15.50;97.00;;;;;;5088031;28;20465;-71
2023/03/16 12:35:51;;;;;;;21.30;19.00;;;15.80;97.00;;;;;;5089597;28;20460;-72
2023/03/16 12:38:30;;;;;;;25.57;19.13;;;15.90;96.50;;;;;;5085967;28;20458;-72
2023/03/16 12:41:13;;;;;;;25.67;19.07;;;16.00;95.20;;;;;;5085810;28;20935;-71
2023/03/16 12:43:52;;;;;;;22.93;18.40;;;15.90;95.50;;;;;;5086903;28;20492;-71
2023/03/16 12:46:29;;;;;;;19.30;18.00;;;15.60;94.60;;;;;;5086331;28;20826;-71
2023/03/16 12:48:59;;;;;;;23.80;18.23;;;15.40;94.00;;;;;;5084642;28;20835;-74